Flight Track Log - Related Links

Times and Time Zones

All times are in EDT time to prevent confusion due to time zone crossing. See the CES2102 flight status page for this flight to view local times or setup timezone preferences in your user account.

Time Position Orientation Groundspeed Altitude Reporting Facility
EDT Latitude Longitude Course Direction KTS MPH feet Rate Location/Type
Fri 09:46:00 PM 37.0573 112.1480 230° Southwest  Level Estimated
Fri 09:47:00 PM 36.9898 112.0556 228° Southwest  Level Estimated
Fri 09:48:00 PM 36.9222 111.9633 228° Southwest  Level Estimated
Fri 09:49:00 PM 36.8545 111.8713 227° Southwest  Level Estimated
Fri 09:50:00 PM 36.7868 111.7794 227° Southwest  Level Estimated
Fri 09:51:00 PM 36.7190 111.6876 227° Southwest  Level Estimated
Fri 09:52:00 PM 36.6511 111.5960 227° Southwest  Level Estimated
Fri 09:53:00 PM 36.5832 111.5046 227° Southwest  Level Estimated
Fri 09:54:00 PM 36.5152 111.4134 227° Southwest  Level Estimated
Fri 09:55:00 PM 36.4471 111.3223 227° Southwest  Level Estimated
Fri 09:56:00 PM 36.3790 111.2313 227° Southwest  Level Estimated
Fri 09:57:00 PM 36.3108 111.1405 227° Southwest  Level Estimated
Fri 09:58:00 PM 36.2425 111.0499 227° Southwest  Level Estimated
Fri 09:59:00 PM 36.1741 110.9594 227° Southwest  Level Estimated
Fri 10:00:00 PM 36.1057 110.8691 227° Southwest  Level Estimated
Fri 10:01:00 PM 36.0372 110.7790 227° Southwest  Level Estimated
Fri 10:02:00 PM 35.9687 110.6890 227° Southwest  Level Estimated
Fri 10:03:00 PM 35.9001 110.5992 227° Southwest  Level Estimated
Fri 10:04:00 PM 35.8314 110.5095 227° Southwest  Level Estimated
Fri 10:05:00 PM 35.7626 110.4200 227° Southwest  Level Estimated
Fri 10:06:00 PM 35.6938 110.3306 227° Southwest  Level Estimated
Fri 10:07:00 PM 35.6249 110.2414 226° Southwest  Level Estimated
Fri 10:08:00 PM 35.5560 110.1523 226° Southwest  Level Estimated
Fri 10:09:00 PM 35.4869 110.0634 226° Southwest  Level Estimated
Fri 10:10:00 PM 35.4179 109.9746 226° Southwest  Level Estimated
Fri 10:11:00 PM 35.3487 109.8860 226° Southwest  Level Estimated
Fri 10:12:00 PM 35.2795 109.7976 226° Southwest  Level Estimated
Fri 10:13:00 PM 35.2102 109.7093 226° Southwest  Level Estimated
Fri 10:14:00 PM 35.1409 109.6211 226° Southwest  Level Estimated
Fri 10:15:00 PM 35.0715 109.5331 226° Southwest  Level Estimated
Fri 10:16:00 PM 35.0020 109.4453 226° Southwest  Level Estimated
Fri 10:17:00 PM 34.9325 109.3576 226° Southwest  Level Estimated
Fri 10:18:00 PM 34.8629 109.2700 226° Southwest  Level Estimated
Fri 10:19:00 PM 34.7932 109.1826 226° Southwest  Level Estimated
Fri 10:20:00 PM 34.7235 109.0953 226° Southwest  Level Estimated
Fri 10:21:00 PM 34.6538 109.0082 226° Southwest  Level Estimated
Fri 10:22:00 PM 34.5839 108.9213 226° Southwest  Level Estimated
Fri 10:23:00 PM 34.5140 108.8344 226° Southwest  Level Estimated
Fri 10:24:00 PM 34.4471 108.7516 226° Southwest  Level Estimated
Fri 10:25:00 PM 34.4471 108.7516 North  Level Estimated
Fri 10:26:00 PM 34.4471 108.7516 North  Level Estimated
Fri 10:27:00 PM 34.4471 108.7516 North  Level Estimated
Fri 10:28:00 PM 34.4471 108.7516 North  Level Estimated
Fri 10:29:00 PM 34.4471 108.7516 North  Level Estimated
Fri 10:30:00 PM 34.4471 108.7516 North  Level Estimated
Fri 10:31:00 PM 34.4471 108.7516 North  Level Estimated
Fri 10:32:00 PM 34.4471 108.7516 North  Level Estimated
Fri 10:33:00 PM 34.4471 108.7516 North  Level Estimated
Fri 10:34:00 PM 34.4471 108.7516 North  Level Estimated
Fri 10:35:00 PM 34.4471 108.7516 North  Level Estimated
Fri 10:36:00 PM 34.4471 108.7516 North  Level Estimated
Fri 10:37:00 PM 34.4471 108.7516 North  Level Estimated
Fri 10:38:00 PM 34.4471 108.7516 North  Level Estimated
Fri 10:39:00 PM 34.4471 108.7516 North  Level Estimated
Fri 10:40:00 PM 34.4471 108.7516 North  Level Estimated
Fri 10:41:00 PM 34.4471 108.7516 North  Level Estimated
Fri 10:42:00 PM 34.4471 108.7516 North  Level Estimated
Fri 10:43:00 PM 34.4471 108.7516 North  Level Estimated

Login

Don't have an account? Register now (free) for customized features, flight alerts, and more!